sensor_id;sensor_type;location;lat;lon;timestamp;P1;durP1;ratioP1;P2;durP2;ratioP2
12024;SDS011;6073;53.230;10.444;2023-02-28T00:00:01;4.10;;;3.43;;
12024;SDS011;6073;53.230;10.444;2023-02-28T00:02:33;5.10;;;3.80;;
12024;SDS011;6073;53.230;10.444;2023-02-28T00:04:58;5.97;;;4.13;;
12024;SDS011;6073;53.230;10.444;2023-02-28T00:07:26;6.20;;;3.93;;
12024;SDS011;6073;53.230;10.444;2023-02-28T00:09:52;6.77;;;3.97;;
12024;SDS011;6073;53.230;10.444;2023-02-28T00:12:18;6.37;;;3.67;;
12024;SDS011;6073;53.230;10.444;2023-02-28T00:14:43;5.10;;;3.43;;
12024;SDS011;6073;53.230;10.444;2023-02-28T00:17:09;7.13;;;3.50;;
12024;SDS011;6073;53.230;10.444;2023-02-28T00:19:34;4.67;;;3.83;;
12024;SDS011;6073;53.230;10.444;2023-02-28T00:22:00;5.90;;;3.40;;
12024;SDS011;6073;53.230;10.444;2023-02-28T00:24:25;5.30;;;3.43;;
12024;SDS011;6073;53.230;10.444;2023-02-28T00:26:51;4.10;;;3.20;;
12024;SDS011;6073;53.230;10.444;2023-02-28T00:29:16;4.83;;;3.30;;
12024;SDS011;6073;53.230;10.444;2023-02-28T00:31:42;6.53;;;4.00;;
12024;SDS011;6073;53.230;10.444;2023-02-28T00:34:08;4.27;;;3.07;;
12024;SDS011;6073;53.230;10.444;2023-02-28T00:36:33;4.93;;;3.17;;
12024;SDS011;6073;53.230;10.444;2023-02-28T00:38:59;4.40;;;3.57;;
12024;SDS011;6073;53.230;10.444;2023-02-28T00:41:24;7.67;;;3.67;;
12024;SDS011;6073;53.230;10.444;2023-02-28T00:43:50;4.20;;;3.50;;
12024;SDS011;6073;53.230;10.444;2023-02-28T00:46:15;5.53;;;3.70;;
12024;SDS011;6073;53.230;10.444;2023-02-28T00:48:41;4.53;;;3.63;;
12024;SDS011;6073;53.230;10.444;2023-02-28T00:51:06;6.37;;;3.90;;
12024;SDS011;6073;53.230;10.444;2023-02-28T00:53:32;5.50;;;3.93;;
12024;SDS011;6073;53.230;10.444;2023-02-28T00:55:57;5.67;;;3.30;;
12024;SDS011;6073;53.230;10.444;2023-02-28T00:58:23;5.77;;;3.87;;
12024;SDS011;6073;53.230;10.444;2023-02-28T01:00:50;5.40;;;3.63;;
12024;SDS011;6073;53.230;10.444;2023-02-28T01:03:17;5.13;;;3.77;;
12024;SDS011;6073;53.230;10.444;2023-02-28T01:05:43;6.10;;;3.70;;
12024;SDS011;6073;53.230;10.444;2023-02-28T01:08:09;4.50;;;3.50;;
12024;SDS011;6073;53.230;10.444;2023-02-28T01:10:34;5.50;;;3.93;;
12024;SDS011;6073;53.230;10.444;2023-02-28T01:13:01;5.53;;;3.70;;
12024;SDS011;6073;53.230;10.444;2023-02-28T01:15:27;5.80;;;4.10;;
12024;SDS011;6073;53.230;10.444;2023-02-28T01:17:53;6.00;;;3.70;;
12024;SDS011;6073;53.230;10.444;2023-02-28T01:20:19;6.03;;;4.17;;
12024;SDS011;6073;53.230;10.444;2023-02-28T01:22:44;6.47;;;3.70;;
12024;SDS011;6073;53.230;10.444;2023-02-28T01:25:10;6.40;;;3.93;;
12024;SDS011;6073;53.230;10.444;2023-02-28T01:27:35;5.60;;;4.60;;
12024;SDS011;6073;53.230;10.444;2023-02-28T01:30:01;6.10;;;3.80;;
12024;SDS011;6073;53.230;10.444;2023-02-28T01:32:27;6.40;;;4.20;;
12024;SDS011;6073;53.230;10.444;2023-02-28T01:34:53;7.63;;;4.20;;
12024;SDS011;6073;53.230;10.444;2023-02-28T01:37:19;7.30;;;4.67;;
12024;SDS011;6073;53.230;10.444;2023-02-28T01:39:44;5.30;;;3.77;;
12024;SDS011;6073;53.230;10.444;2023-02-28T01:42:12;7.30;;;4.53;;
12024;SDS011;6073;53.230;10.444;2023-02-28T01:47:23;6.73;;;3.83;;
12024;SDS011;6073;53.230;10.444;2023-02-28T01:50:02;6.23;;;4.07;;
12024;SDS011;6073;53.230;10.444;2023-02-28T01:52:30;6.03;;;3.70;;
12024;SDS011;6073;53.230;10.444;2023-02-28T01:54:58;8.07;;;4.10;;
12024;SDS011;6073;53.230;10.444;2023-02-28T01:57:28;6.90;;;3.90;;
12024;SDS011;6073;53.230;10.444;2023-02-28T02:00:03;5.30;;;3.60;;
12024;SDS011;6073;53.230;10.444;2023-02-28T02:02:33;5.97;;;4.20;;
12024;SDS011;6073;53.230;10.444;2023-02-28T02:05:16;6.60;;;4.20;;
12024;SDS011;6073;53.230;10.444;2023-02-28T02:07:44;7.73;;;3.77;;
12024;SDS011;6073;53.230;10.444;2023-02-28T02:10:20;6.37;;;4.63;;
12024;SDS011;6073;53.230;10.444;2023-02-28T02:13:00;4.77;;;3.50;;
12024;SDS011;6073;53.230;10.444;2023-02-28T02:15:47;5.97;;;3.83;;
12024;SDS011;6073;53.230;10.444;2023-02-28T02:18:26;6.40;;;3.60;;
12024;SDS011;6073;53.230;10.444;2023-02-28T02:29:40;4.23;;;3.07;;
12024;SDS011;6073;53.230;10.444;2023-02-28T02:32:36;4.50;;;2.97;;
12024;SDS011;6073;53.230;10.444;2023-02-28T02:38:04;4.07;;;2.87;;
12024;SDS011;6073;53.230;10.444;2023-02-28T02:40:38;4.70;;;3.10;;
12024;SDS011;6073;53.230;10.444;2023-02-28T02:43:29;5.13;;;2.80;;
12024;SDS011;6073;53.230;10.444;2023-02-28T02:46:10;4.73;;;2.90;;
12024;SDS011;6073;53.230;10.444;2023-02-28T02:48:40;5.60;;;3.27;;
12024;SDS011;6073;53.230;10.444;2023-02-28T02:51:11;6.10;;;3.10;;
12024;SDS011;6073;53.230;10.444;2023-02-28T02:53:47;4.17;;;2.93;;
12024;SDS011;6073;53.230;10.444;2023-02-28T02:56:23;4.40;;;3.10;;
12024;SDS011;6073;53.230;10.444;2023-02-28T02:58:53;4.20;;;3.20;;
12024;SDS011;6073;53.230;10.444;2023-02-28T03:01:24;4.27;;;2.87;;
12024;SDS011;6073;53.230;10.444;2023-02-28T03:04:03;5.17;;;3.27;;
12024;SDS011;6073;53.230;10.444;2023-02-28T03:06:32;4.47;;;2.63;;
12024;SDS011;6073;53.230;10.444;2023-02-28T03:08:59;5.50;;;3.10;;
12024;SDS011;6073;53.230;10.444;2023-02-28T03:11:25;3.90;;;3.17;;
12024;SDS011;6073;53.230;10.444;2023-02-28T03:13:56;4.83;;;3.30;;
12024;SDS011;6073;53.230;10.444;2023-02-28T03:19:28;6.30;;;3.10;;
12024;SDS011;6073;53.230;10.444;2023-02-28T03:25:13;4.73;;;3.30;;
12024;SDS011;6073;53.230;10.444;2023-02-28T03:28:04;3.67;;;2.73;;
12024;SDS011;6073;53.230;10.444;2023-02-28T03:30:42;5.50;;;3.00;;
12024;SDS011;6073;53.230;10.444;2023-02-28T03:33:21;4.30;;;3.17;;
12024;SDS011;6073;53.230;10.444;2023-02-28T03:35:54;4.40;;;2.80;;
12024;SDS011;6073;53.230;10.444;2023-02-28T03:39:07;4.37;;;2.77;;
12024;SDS011;6073;53.230;10.444;2023-02-28T03:41:21;4.73;;;2.90;;
12024;SDS011;6073;53.230;10.444;2023-02-28T03:43:53;5.27;;;3.00;;
12024;SDS011;6073;53.230;10.444;2023-02-28T03:46:22;3.37;;;3.07;;
12024;SDS011;6073;53.230;10.444;2023-02-28T03:48:57;4.20;;;3.03;;
12024;SDS011;6073;53.230;10.444;2023-02-28T03:51:29;5.63;;;3.17;;
12024;SDS011;6073;53.230;10.444;2023-02-28T03:53:57;6.77;;;3.33;;
12024;SDS011;6073;53.230;10.444;2023-02-28T03:56:33;5.17;;;2.80;;
12024;SDS011;6073;53.230;10.444;2023-02-28T03:59:20;4.13;;;3.03;;
12024;SDS011;6073;53.230;10.444;2023-02-28T04:01:52;3.53;;;2.70;;
12024;SDS011;6073;53.230;10.444;2023-02-28T04:04:18;5.37;;;3.10;;
12024;SDS011;6073;53.230;10.444;2023-02-28T04:06:44;5.40;;;2.97;;
12024;SDS011;6073;53.230;10.444;2023-02-28T04:09:11;4.83;;;2.87;;
12024;SDS011;6073;53.230;10.444;2023-02-28T04:11:39;4.30;;;2.93;;
12024;SDS011;6073;53.230;10.444;2023-02-28T04:14:07;5.23;;;3.00;;
12024;SDS011;6073;53.230;10.444;2023-02-28T04:16:38;3.13;;;2.83;;
12024;SDS011;6073;53.230;10.444;2023-02-28T04:19:06;3.77;;;2.87;;
12024;SDS011;6073;53.230;10.444;2023-02-28T04:21:34;4.17;;;2.80;;
12024;SDS011;6073;53.230;10.444;2023-02-28T04:24:04;5.23;;;2.70;;
12024;SDS011;6073;53.230;10.444;2023-02-28T04:26:31;6.37;;;3.20;;
12024;SDS011;6073;53.230;10.444;2023-02-28T04:28:58;3.77;;;2.50;;
12024;SDS011;6073;53.230;10.444;2023-02-28T04:31:24;4.77;;;2.70;;
12024;SDS011;6073;53.230;10.444;2023-02-28T04:33:50;4.83;;;2.90;;
12024;SDS011;6073;53.230;10.444;2023-02-28T04:36:15;6.70;;;3.20;;
12024;SDS011;6073;53.230;10.444;2023-02-28T04:38:43;4.43;;;3.07;;
12024;SDS011;6073;53.230;10.444;2023-02-28T04:41:09;4.70;;;3.13;;
12024;SDS011;6073;53.230;10.444;2023-02-28T04:43:35;5.80;;;3.20;;
12024;SDS011;6073;53.230;10.444;2023-02-28T04:46:01;5.27;;;3.60;;
12024;SDS011;6073;53.230;10.444;2023-02-28T04:48:28;4.87;;;3.40;;
12024;SDS011;6073;53.230;10.444;2023-02-28T04:50:55;5.00;;;3.30;;
12024;SDS011;6073;53.230;10.444;2023-02-28T04:53:24;4.70;;;3.10;;
12024;SDS011;6073;53.230;10.444;2023-02-28T04:55:49;4.50;;;3.63;;
12024;SDS011;6073;53.230;10.444;2023-02-28T04:58:15;5.60;;;3.40;;
12024;SDS011;6073;53.230;10.444;2023-02-28T05:00:41;3.63;;;2.90;;
12024;SDS011;6073;53.230;10.444;2023-02-28T05:03:06;5.73;;;3.00;;
12024;SDS011;6073;53.230;10.444;2023-02-28T05:05:32;4.30;;;3.10;;
12024;SDS011;6073;53.230;10.444;2023-02-28T05:07:57;4.83;;;3.53;;
12024;SDS011;6073;53.230;10.444;2023-02-28T05:10:23;3.77;;;3.30;;
12024;SDS011;6073;53.230;10.444;2023-02-28T05:12:49;5.07;;;3.10;;
12024;SDS011;6073;53.230;10.444;2023-02-28T05:15:15;5.13;;;3.23;;
12024;SDS011;6073;53.230;10.444;2023-02-28T05:17:41;4.67;;;3.50;;
12024;SDS011;6073;53.230;10.444;2023-02-28T05:20:07;6.60;;;3.00;;
12024;SDS011;6073;53.230;10.444;2023-02-28T05:22:35;4.43;;;3.00;;
12024;SDS011;6073;53.230;10.444;2023-02-28T05:25:02;6.43;;;2.90;;
12024;SDS011;6073;53.230;10.444;2023-02-28T05:27:29;5.37;;;3.23;;
12024;SDS011;6073;53.230;10.444;2023-02-28T05:29:55;3.37;;;2.50;;
12024;SDS011;6073;53.230;10.444;2023-02-28T05:32:21;7.43;;;3.17;;
12024;SDS011;6073;53.230;10.444;2023-02-28T05:34:47;5.27;;;3.17;;
12024;SDS011;6073;53.230;10.444;2023-02-28T05:37:13;4.27;;;3.03;;
12024;SDS011;6073;53.230;10.444;2023-02-28T05:39:39;6.67;;;3.60;;
12024;SDS011;6073;53.230;10.444;2023-02-28T05:42:05;4.73;;;3.40;;
12024;SDS011;6073;53.230;10.444;2023-02-28T05:44:31;5.30;;;3.03;;
12024;SDS011;6073;53.230;10.444;2023-02-28T05:46:57;3.73;;;3.17;;
12024;SDS011;6073;53.230;10.444;2023-02-28T05:49:22;4.20;;;3.23;;
12024;SDS011;6073;53.230;10.444;2023-02-28T05:51:48;4.70;;;3.30;;
12024;SDS011;6073;53.230;10.444;2023-02-28T05:54:13;5.77;;;3.57;;
12024;SDS011;6073;53.230;10.444;2023-02-28T05:56:39;4.83;;;3.33;;
12024;SDS011;6073;53.230;10.444;2023-02-28T05:59:05;5.97;;;3.47;;
12024;SDS011;6073;53.230;10.444;2023-02-28T06:01:33;5.77;;;3.40;;
12024;SDS011;6073;53.230;10.444;2023-02-28T06:04:04;7.33;;;3.63;;
12024;SDS011;6073;53.230;10.444;2023-02-28T06:06:32;6.60;;;3.17;;
12024;SDS011;6073;53.230;10.444;2023-02-28T06:09:01;4.67;;;3.07;;
12024;SDS011;6073;53.230;10.444;2023-02-28T06:11:28;4.63;;;2.73;;
12024;SDS011;6073;53.230;10.444;2023-02-28T06:13:54;5.23;;;3.30;;
12024;SDS011;6073;53.230;10.444;2023-02-28T06:16:21;5.00;;;3.43;;
12024;SDS011;6073;53.230;10.444;2023-02-28T06:18:47;4.57;;;3.40;;
12024;SDS011;6073;53.230;10.444;2023-02-28T06:21:12;4.80;;;3.70;;
12024;SDS011;6073;53.230;10.444;2023-02-28T06:23:38;6.07;;;3.30;;
12024;SDS011;6073;53.230;10.444;2023-02-28T06:26:04;4.70;;;3.40;;
12024;SDS011;6073;53.230;10.444;2023-02-28T06:28:29;5.13;;;3.30;;
12024;SDS011;6073;53.230;10.444;2023-02-28T06:30:55;5.17;;;3.47;;
12024;SDS011;6073;53.230;10.444;2023-02-28T06:33:20;5.40;;;3.20;;
12024;SDS011;6073;53.230;10.444;2023-02-28T06:35:47;5.37;;;3.10;;
12024;SDS011;6073;53.230;10.444;2023-02-28T06:38:14;6.43;;;4.10;;
12024;SDS011;6073;53.230;10.444;2023-02-28T06:40:40;4.97;;;3.20;;
12024;SDS011;6073;53.230;10.444;2023-02-28T06:43:06;4.23;;;3.70;;
12024;SDS011;6073;53.230;10.444;2023-02-28T06:45:32;4.07;;;3.13;;
12024;SDS011;6073;53.230;10.444;2023-02-28T06:47:57;5.20;;;3.80;;
12024;SDS011;6073;53.230;10.444;2023-02-28T06:50:25;6.93;;;3.40;;
12024;SDS011;6073;53.230;10.444;2023-02-28T06:52:50;6.37;;;3.17;;
12024;SDS011;6073;53.230;10.444;2023-02-28T06:55:19;5.37;;;3.40;;
12024;SDS011;6073;53.230;10.444;2023-02-28T06:57:44;4.53;;;3.13;;
12024;SDS011;6073;53.230;10.444;2023-02-28T07:00:10;5.07;;;3.60;;
12024;SDS011;6073;53.230;10.444;2023-02-28T07:02:36;5.60;;;3.53;;
12024;SDS011;6073;53.230;10.444;2023-02-28T07:05:03;4.87;;;3.73;;
12024;SDS011;6073;53.230;10.444;2023-02-28T07:07:29;5.97;;;4.27;;
12024;SDS011;6073;53.230;10.444;2023-02-28T07:09:55;5.57;;;4.63;;
12024;SDS011;6073;53.230;10.444;2023-02-28T07:12:21;5.50;;;4.30;;
12024;SDS011;6073;53.230;10.444;2023-02-28T07:14:47;7.13;;;4.00;;
12024;SDS011;6073;53.230;10.444;2023-02-28T07:17:12;5.97;;;4.30;;
12024;SDS011;6073;53.230;10.444;2023-02-28T07:19:38;6.80;;;4.10;;
12024;SDS011;6073;53.230;10.444;2023-02-28T07:22:04;4.00;;;2.97;;
12024;SDS011;6073;53.230;10.444;2023-02-28T07:24:30;4.85;;;3.28;;
12024;SDS011;6073;53.230;10.444;2023-02-28T07:26:56;4.45;;;3.72;;
12024;SDS011;6073;53.230;10.444;2023-02-28T07:29:21;4.93;;;3.47;;
12024;SDS011;6073;53.230;10.444;2023-02-28T07:31:47;3.95;;;3.33;;
12024;SDS011;6073;53.230;10.444;2023-02-28T07:34:13;3.67;;;3.25;;
12024;SDS011;6073;53.230;10.444;2023-02-28T07:36:39;4.78;;;3.88;;
12024;SDS011;6073;53.230;10.444;2023-02-28T07:39:04;5.55;;;3.85;;
12024;SDS011;6073;53.230;10.444;2023-02-28T07:41:30;4.20;;;3.65;;
12024;SDS011;6073;53.230;10.444;2023-02-28T07:43:59;4.32;;;3.75;;
12024;SDS011;6073;53.230;10.444;2023-02-28T07:46:25;4.13;;;3.63;;
12024;SDS011;6073;53.230;10.444;2023-02-28T07:48:51;5.25;;;3.78;;
12024;SDS011;6073;53.230;10.444;2023-02-28T07:51:19;4.60;;;3.78;;
12024;SDS011;6073;53.230;10.444;2023-02-28T07:53:45;7.47;;;3.78;;
12024;SDS011;6073;53.230;10.444;2023-02-28T07:56:11;3.50;;;3.20;;
12024;SDS011;6073;53.230;10.444;2023-02-28T07:58:36;5.28;;;3.67;;
12024;SDS011;6073;53.230;10.444;2023-02-28T08:01:06;3.40;;;3.10;;
12024;SDS011;6073;53.230;10.444;2023-02-28T08:03:32;4.40;;;3.33;;
12024;SDS011;6073;53.230;10.444;2023-02-28T08:05:58;3.53;;;2.88;;
12024;SDS011;6073;53.230;10.444;2023-02-28T08:08:23;4.72;;;3.88;;
12024;SDS011;6073;53.230;10.444;2023-02-28T08:10:53;3.60;;;3.20;;
12024;SDS011;6073;53.230;10.444;2023-02-28T08:13:18;4.50;;;3.22;;
12024;SDS011;6073;53.230;10.444;2023-02-28T08:15:44;3.90;;;2.85;;
12024;SDS011;6073;53.230;10.444;2023-02-28T08:18:10;5.28;;;3.38;;
12024;SDS011;6073;53.230;10.444;2023-02-28T08:20:36;4.03;;;3.30;;
12024;SDS011;6073;53.230;10.444;2023-02-28T08:23:01;5.22;;;3.60;;
12024;SDS011;6073;53.230;10.444;2023-02-28T08:25:27;4.93;;;3.67;;
12024;SDS011;6073;53.230;10.444;2023-02-28T08:27:52;3.92;;;3.50;;
12024;SDS011;6073;53.230;10.444;2023-02-28T08:30:18;4.88;;;3.47;;
12024;SDS011;6073;53.230;10.444;2023-02-28T08:32:44;3.85;;;3.15;;
12024;SDS011;6073;53.230;10.444;2023-02-28T08:35:10;3.85;;;3.15;;
12024;SDS011;6073;53.230;10.444;2023-02-28T08:37:36;3.63;;;3.03;;
12024;SDS011;6073;53.230;10.444;2023-02-28T08:40:01;6.13;;;3.80;;
12024;SDS011;6073;53.230;10.444;2023-02-28T08:42:28;4.05;;;3.65;;
12024;SDS011;6073;53.230;10.444;2023-02-28T08:44:54;4.82;;;3.47;;
12024;SDS011;6073;53.230;10.444;2023-02-28T08:47:20;5.60;;;3.65;;
12024;SDS011;6073;53.230;10.444;2023-02-28T08:49:45;4.15;;;3.60;;
12024;SDS011;6073;53.230;10.444;2023-02-28T08:52:11;4.95;;;3.55;;
12024;SDS011;6073;53.230;10.444;2023-02-28T08:54:36;3.63;;;2.90;;
12024;SDS011;6073;53.230;10.444;2023-02-28T08:57:02;4.68;;;3.33;;
12024;SDS011;6073;53.230;10.444;2023-02-28T08:59:28;3.65;;;3.10;;
12024;SDS011;6073;53.230;10.444;2023-02-28T09:01:54;3.55;;;3.15;;
12024;SDS011;6073;53.230;10.444;2023-02-28T09:04:19;4.30;;;2.80;;
12024;SDS011;6073;53.230;10.444;2023-02-28T09:06:45;4.55;;;3.22;;
12024;SDS011;6073;53.230;10.444;2023-02-28T09:09:11;4.22;;;3.33;;
12024;SDS011;6073;53.230;10.444;2023-02-28T09:11:36;5.00;;;3.17;;
12024;SDS011;6073;53.230;10.444;2023-02-28T09:14:02;4.03;;;2.92;;
12024;SDS011;6073;53.230;10.444;2023-02-28T09:16:28;4.30;;;3.40;;
12024;SDS011;6073;53.230;10.444;2023-02-28T09:18:55;3.65;;;3.17;;
12024;SDS011;6073;53.230;10.444;2023-02-28T09:21:21;3.65;;;2.83;;
12024;SDS011;6073;53.230;10.444;2023-02-28T09:23:48;5.30;;;3.08;;
12024;SDS011;6073;53.230;10.444;2023-02-28T09:26:15;3.72;;;3.42;;
12024;SDS011;6073;53.230;10.444;2023-02-28T09:28:43;4.85;;;3.40;;
12024;SDS011;6073;53.230;10.444;2023-02-28T09:31:23;3.00;;;2.70;;
12024;SDS011;6073;53.230;10.444;2023-02-28T09:33:52;4.70;;;2.95;;
12024;SDS011;6073;53.230;10.444;2023-02-28T09:36:19;3.47;;;3.15;;
12024;SDS011;6073;53.230;10.444;2023-02-28T09:38:46;2.63;;;2.42;;
12024;SDS011;6073;53.230;10.444;2023-02-28T09:41:13;1.33;;;1.13;;
12024;SDS011;6073;53.230;10.444;2023-02-28T09:43:45;2.22;;;1.40;;
12024;SDS011;6073;53.230;10.444;2023-02-28T09:49:04;1.83;;;1.70;;
12024;SDS011;6073;53.230;10.444;2023-02-28T09:54:13;4.28;;;2.13;;
12024;SDS011;6073;53.230;10.444;2023-02-28T09:56:44;1.90;;;1.70;;
12024;SDS011;6073;53.230;10.444;2023-02-28T10:06:50;1.48;;;1.38;;
12024;SDS011;6073;53.230;10.444;2023-02-28T10:09:18;2.28;;;1.40;;
12024;SDS011;6073;53.230;10.444;2023-02-28T10:11:56;1.92;;;1.63;;
12024;SDS011;6073;53.230;10.444;2023-02-28T10:14:26;1.75;;;1.38;;
12024;SDS011;6073;53.230;10.444;2023-02-28T10:16:55;2.75;;;1.50;;
12024;SDS011;6073;53.230;10.444;2023-02-28T10:24:58;6.55;;;3.20;;
12024;SDS011;6073;53.230;10.444;2023-02-28T10:27:29;3.38;;;2.70;;
12024;SDS011;6073;53.230;10.444;2023-02-28T10:29:57;3.13;;;2.83;;
12024;SDS011;6073;53.230;10.444;2023-02-28T10:32:27;3.00;;;2.70;;
12024;SDS011;6073;53.230;10.444;2023-02-28T10:34:57;3.40;;;2.42;;
12024;SDS011;6073;53.230;10.444;2023-02-28T10:37:27;3.00;;;2.70;;
12024;SDS011;6073;53.230;10.444;2023-02-28T10:39:53;4.70;;;3.03;;
12024;SDS011;6073;53.230;10.444;2023-02-28T10:42:29;3.83;;;3.35;;
12024;SDS011;6073;53.230;10.444;2023-02-28T10:45:12;5.20;;;2.90;;
12024;SDS011;6073;53.230;10.444;2023-02-28T10:47:48;3.03;;;2.50;;
12024;SDS011;6073;53.230;10.444;2023-02-28T10:50:35;3.25;;;1.88;;
12024;SDS011;6073;53.230;10.444;2023-02-28T11:03:58;2.13;;;1.33;;
12024;SDS011;6073;53.230;10.444;2023-02-28T11:06:31;2.63;;;1.55;;
12024;SDS011;6073;53.230;10.444;2023-02-28T11:09:06;1.30;;;1.20;;
12024;SDS011;6073;53.230;10.444;2023-02-28T11:11:50;3.65;;;1.35;;
12024;SDS011;6073;53.230;10.444;2023-02-28T11:14:21;1.95;;;1.40;;
12024;SDS011;6073;53.230;10.444;2023-02-28T11:16:49;1.73;;;1.10;;
12024;SDS011;6073;53.230;10.444;2023-02-28T11:19:18;1.52;;;1.40;;
12024;SDS011;6073;53.230;10.444;2023-02-28T11:21:52;1.90;;;1.38;;
12024;SDS011;6073;53.230;10.444;2023-02-28T11:24:41;1.25;;;1.13;;
12024;SDS011;6073;53.230;10.444;2023-02-28T11:29:57;1.70;;;1.50;;
12024;SDS011;6073;53.230;10.444;2023-02-28T11:32:27;1.50;;;1.27;;
12024;SDS011;6073;53.230;10.444;2023-02-28T11:35:14;2.17;;;1.35;;
12024;SDS011;6073;53.230;10.444;2023-02-28T11:37:48;1.25;;;1.08;;
12024;SDS011;6073;53.230;10.444;2023-02-28T11:40:14;1.20;;;1.02;;
12024;SDS011;6073;53.230;10.444;2023-02-28T11:45:43;1.25;;;1.15;;
12024;SDS011;6073;53.230;10.444;2023-02-28T11:48:47;1.20;;;0.90;;
12024;SDS011;6073;53.230;10.444;2023-02-28T11:51:21;1.88;;;1.00;;
12024;SDS011;6073;53.230;10.444;2023-02-28T11:53:59;1.58;;;1.20;;
12024;SDS011;6073;53.230;10.444;2023-02-28T11:56:36;2.97;;;1.38;;
12024;SDS011;6073;53.230;10.444;2023-02-28T11:59:13;2.70;;;0.95;;
12024;SDS011;6073;53.230;10.444;2023-02-28T12:07:07;1.33;;;1.23;;
12024;SDS011;6073;53.230;10.444;2023-02-28T12:12:48;1.70;;;1.20;;
12024;SDS011;6073;53.230;10.444;2023-02-28T12:15:47;1.98;;;1.30;;
12024;SDS011;6073;53.230;10.444;2023-02-28T12:23:52;2.75;;;1.30;;
12024;SDS011;6073;53.230;10.444;2023-02-28T12:26:30;2.33;;;1.20;;
12024;SDS011;6073;53.230;10.444;2023-02-28T12:29:09;1.70;;;1.25;;
12024;SDS011;6073;53.230;10.444;2023-02-28T12:34:49;2.38;;;1.15;;
12024;SDS011;6073;53.230;10.444;2023-02-28T12:37:22;1.40;;;1.10;;
12024;SDS011;6073;53.230;10.444;2023-02-28T12:39:56;2.03;;;1.00;;
12024;SDS011;6073;53.230;10.444;2023-02-28T12:42:31;2.13;;;0.93;;
12024;SDS011;6073;53.230;10.444;2023-02-28T12:45:13;1.48;;;1.02;;
12024;SDS011;6073;53.230;10.444;2023-02-28T12:47:44;2.03;;;1.05;;
12024;SDS011;6073;53.230;10.444;2023-02-28T12:50:15;2.25;;;1.13;;
12024;SDS011;6073;53.230;10.444;2023-02-28T12:52:51;1.98;;;1.30;;
12024;SDS011;6073;53.230;10.444;2023-02-28T13:01:14;1.58;;;0.85;;
12024;SDS011;6073;53.230;10.444;2023-02-28T13:09:38;2.53;;;1.33;;
12024;SDS011;6073;53.230;10.444;2023-02-28T13:12:12;1.30;;;1.20;;
12024;SDS011;6073;53.230;10.444;2023-02-28T13:14:39;1.60;;;1.20;;
12024;SDS011;6073;53.230;10.444;2023-02-28T13:19:35;2.35;;;1.55;;
12024;SDS011;6073;53.230;10.444;2023-02-28T13:22:02;2.33;;;1.80;;
12024;SDS011;6073;53.230;10.444;2023-02-28T13:24:36;2.67;;;2.10;;
12024;SDS011;6073;53.230;10.444;2023-02-28T13:34:33;2.92;;;1.77;;
12024;SDS011;6073;53.230;10.444;2023-02-28T13:39:51;2.10;;;1.52;;
12024;SDS011;6073;53.230;10.444;2023-02-28T13:47:43;2.92;;;1.75;;
12024;SDS011;6073;53.230;10.444;2023-02-28T13:50:19;2.30;;;1.45;;
12024;SDS011;6073;53.230;10.444;2023-02-28T13:58:37;1.70;;;1.33;;
12024;SDS011;6073;53.230;10.444;2023-02-28T14:06:37;4.03;;;1.50;;
12024;SDS011;6073;53.230;10.444;2023-02-28T14:17:57;2.30;;;1.30;;
12024;SDS011;6073;53.230;10.444;2023-02-28T14:20:27;1.80;;;1.00;;
12024;SDS011;6073;53.230;10.444;2023-02-28T14:25:59;1.98;;;1.17;;
12024;SDS011;6073;53.230;10.444;2023-02-28T14:28:43;2.45;;;1.20;;
12024;SDS011;6073;53.230;10.444;2023-02-28T14:31:36;1.90;;;0.98;;
12024;SDS011;6073;53.230;10.444;2023-02-28T14:37:15;4.28;;;1.42;;
12024;SDS011;6073;53.230;10.444;2023-02-28T14:39:45;2.05;;;0.98;;
12024;SDS011;6073;53.230;10.444;2023-02-28T14:42:28;3.20;;;1.20;;
12024;SDS011;6073;53.230;10.444;2023-02-28T14:44:59;1.17;;;0.95;;
12024;SDS011;6073;53.230;10.444;2023-02-28T14:47:27;3.80;;;1.40;;
12024;SDS011;6073;53.230;10.444;2023-02-28T14:49:56;1.60;;;1.10;;
12024;SDS011;6073;53.230;10.444;2023-02-28T14:52:23;1.80;;;1.10;;
12024;SDS011;6073;53.230;10.444;2023-02-28T14:55:05;2.85;;;1.30;;
12024;SDS011;6073;53.230;10.444;2023-02-28T14:57:33;2.65;;;1.55;;
12024;SDS011;6073;53.230;10.444;2023-02-28T15:00:09;1.20;;;1.10;;
12024;SDS011;6073;53.230;10.444;2023-02-28T15:02:40;1.75;;;1.02;;
12024;SDS011;6073;53.230;10.444;2023-02-28T15:05:16;1.23;;;1.08;;
12024;SDS011;6073;53.230;10.444;2023-02-28T15:07:48;1.40;;;1.15;;
12024;SDS011;6073;53.230;10.444;2023-02-28T15:10:25;1.92;;;1.20;;
12024;SDS011;6073;53.230;10.444;2023-02-28T15:12:53;2.85;;;1.83;;
12024;SDS011;6073;53.230;10.444;2023-02-28T15:15:22;2.88;;;1.80;;
12024;SDS011;6073;53.230;10.444;2023-02-28T15:17:52;1.92;;;1.60;;
12024;SDS011;6073;53.230;10.444;2023-02-28T15:20:21;2.10;;;1.30;;
12024;SDS011;6073;53.230;10.444;2023-02-28T15:22:47;2.40;;;1.20;;
12024;SDS011;6073;53.230;10.444;2023-02-28T15:25:18;1.35;;;1.08;;
12024;SDS011;6073;53.230;10.444;2023-02-28T15:27:46;1.90;;;1.20;;
12024;SDS011;6073;53.230;10.444;2023-02-28T15:30:15;1.45;;;1.10;;
12024;SDS011;6073;53.230;10.444;2023-02-28T15:32:44;1.30;;;1.10;;
12024;SDS011;6073;53.230;10.444;2023-02-28T15:40:49;2.08;;;1.55;;
12024;SDS011;6073;53.230;10.444;2023-02-28T15:45:51;1.23;;;1.10;;
12024;SDS011;6073;53.230;10.444;2023-02-28T15:48:20;1.20;;;1.10;;
12024;SDS011;6073;53.230;10.444;2023-02-28T15:50:51;1.30;;;1.10;;
12024;SDS011;6073;53.230;10.444;2023-02-28T15:53:31;2.33;;;0.95;;
12024;SDS011;6073;53.230;10.444;2023-02-28T15:56:01;1.50;;;1.20;;
12024;SDS011;6073;53.230;10.444;2023-02-28T15:58:29;1.85;;;1.10;;
12024;SDS011;6073;53.230;10.444;2023-02-28T16:01:04;1.90;;;1.20;;
12024;SDS011;6073;53.230;10.444;2023-02-28T16:03:40;2.45;;;1.80;;
12024;SDS011;6073;53.230;10.444;2023-02-28T16:06:21;2.53;;;1.40;;
12024;SDS011;6073;53.230;10.444;2023-02-28T16:09:00;2.28;;;1.20;;
12024;SDS011;6073;53.230;10.444;2023-02-28T16:11:26;1.63;;;1.13;;
12024;SDS011;6073;53.230;10.444;2023-02-28T16:13:51;2.60;;;1.42;;
12024;SDS011;6073;53.230;10.444;2023-02-28T16:16:18;2.10;;;1.30;;
12024;SDS011;6073;53.230;10.444;2023-02-28T16:18:49;1.75;;;1.13;;
12024;SDS011;6073;53.230;10.444;2023-02-28T16:21:15;2.55;;;1.70;;
12024;SDS011;6073;53.230;10.444;2023-02-28T16:23:40;2.97;;;1.67;;
12024;SDS011;6073;53.230;10.444;2023-02-28T16:26:06;2.85;;;1.77;;
12024;SDS011;6073;53.230;10.444;2023-02-28T16:28:36;2.88;;;1.88;;
12024;SDS011;6073;53.230;10.444;2023-02-28T16:31:04;3.92;;;2.28;;
12024;SDS011;6073;53.230;10.444;2023-02-28T16:33:32;5.60;;;3.28;;
12024;SDS011;6073;53.230;10.444;2023-02-28T16:35:58;5.90;;;3.80;;
12024;SDS011;6073;53.230;10.444;2023-02-28T16:38:25;5.00;;;3.15;;
12024;SDS011;6073;53.230;10.444;2023-02-28T16:40:51;5.82;;;3.08;;
12024;SDS011;6073;53.230;10.444;2023-02-28T16:43:22;4.57;;;2.80;;
12024;SDS011;6073;53.230;10.444;2023-02-28T16:45:52;3.40;;;2.85;;
12024;SDS011;6073;53.230;10.444;2023-02-28T16:48:23;4.43;;;2.90;;
12024;SDS011;6073;53.230;10.444;2023-02-28T16:50:50;5.13;;;2.80;;
12024;SDS011;6073;53.230;10.444;2023-02-28T16:53:16;2.88;;;2.28;;
12024;SDS011;6073;53.230;10.444;2023-02-28T16:55:41;2.67;;;2.00;;
12024;SDS011;6073;53.230;10.444;2023-02-28T16:58:10;2.90;;;2.05;;
12024;SDS011;6073;53.230;10.444;2023-02-28T17:00:39;3.20;;;1.95;;
12024;SDS011;6073;53.230;10.444;2023-02-28T17:03:05;3.15;;;1.90;;
12024;SDS011;6073;53.230;10.444;2023-02-28T17:05:35;3.38;;;1.80;;
12024;SDS011;6073;53.230;10.444;2023-02-28T17:08:03;2.42;;;1.60;;
12024;SDS011;6073;53.230;10.444;2023-02-28T17:10:29;2.83;;;1.73;;
12024;SDS011;6073;53.230;10.444;2023-02-28T17:12:54;2.42;;;1.65;;
12024;SDS011;6073;53.230;10.444;2023-02-28T17:15:20;2.13;;;1.70;;
12024;SDS011;6073;53.230;10.444;2023-02-28T17:17:47;1.77;;;1.38;;